Airfield :
LOGIN :

Register | Disclaimer

   EN    FR    IT 

 










Legend :    VFR   Marginal VFR   IFR   Intensive IFR   Very Intensive IFR
Visi :
Ceiling :
>= 8 km
>= 3000ft
5 to 8 km
1000 to 3000 ft
1500m to 5 km
500 to 1000 ft
800 to 1500m
200 to 500 ft
< 800m
< 200 ft
Symbols :   Thunderstorms  Fog  Heavy snow  Heavy precipitations  Wind > 20 kt
SIGMETs :     Misc.  Thunderstorms  Icing  Turbulence  Mountain Waves  Volcanic Ashes







- Airport Elevation : 22 ft
- IATA code : TUN


DTTA - Tunis Carthage

CURRENT METAR :
  • 241000Z 18007KT 100V230 9999 FEW030 28/10 Q1014

EXPIRED METARs :
  • 240930Z VRB03KT 9999 FEW030 27/08 Q1014
  • 240900Z 12003KT 060V180 9999 FEW030 25/08 Q1014
  • 240830Z VRB02KT CAVOK 24/09 Q1014
  • 240800Z VRB02KT CAVOK 24/09 Q1015
  • 240730Z 16003KT 070V240 CAVOK 23/09 Q1015

TAF TAF DTTA
Valid from the 24 at 06:00 until the 25 at 06:00 UTC


240500Z 2406/2506 10007KT CAVOK
BECMG 2409/2411 13014KT 9999 SCT020
PROB40
TEMPO 2417/2424 VRB15G27KT 4000 -TS SHRA SCT020 SCT026 FEW030CB
No reported NOTAMs for that airfield.



MET'MAP, your aeronautical weather chart ! - Copyright ORBIFLY December 2007 - Disclaimer

ORBIFLY MET'MAP TEAM :

Programming & Development : Alexandra Zaïnal
Concept & Development : Baudouin d'Aumeries
Co-Development & Prog : Marc-Olivier Méhu
Technical & hardware support : Manuel Goepfert

Contact : metmap@orbifly.com




SOURCES & CREDITS :

   NOAA